Terminal Aerodrome Forecast
Issued by NWS

Home | Current Version | Previous Version | Text Only | Print | Product List | Glossary Off
Versions: 1 2 3 4 5 6 7 8 9 10 11 12 13 14 15 16 17 18 19 20

000
FTUS43 KABR 131100
TAFATY
TAF
KATY 131125Z 1312/1412 36020G27KT P6SM OVC007
     FM131400 36021G29KT P6SM OVC015
     FM131800 36025G35KT P6SM SCT025 BKN050
     FM140300 35016KT P6SM SCT250=

USA.gov is the U.S. government's official web portal to all federal, state and local government web resources and services.